Time;durP1;ratioP1;P1;durP2;ratioP2;P2;SDS_P1;SDS_P2;PMS_P1;PMS_P2;Temp;Humidity;BMP_temperature;BMP_pressure;BME280_temperature;BME280_humidity;BME280_pressure;Samples;Min_cycle;Max_cycle;Signal;HPM_P1;HPM_P2
2022/11/25 00:01:48;;;;;;;7.30;3.87;;;4.20;99.90;;;;;;5074673;28;20224;-57
2022/11/25 00:04:15;;;;;;;8.73;4.30;;;4.20;99.90;;;;;;5075091;28;20201;-57
2022/11/25 00:06:43;;;;;;;11.43;4.20;;;4.20;99.90;;;;;;5075245;28;20205;-57
2022/11/25 00:09:11;;;;;;;7.40;3.83;;;4.20;99.90;;;;;;5075652;28;20211;-58
2022/11/25 00:11:41;;;;;;;6.93;4.07;;;4.30;99.90;;;;;;5074278;28;20286;-57
2022/11/25 00:14:11;;;;;;;8.50;4.67;;;4.30;99.90;;;;;;5075660;28;20219;-57
2022/11/25 00:16:38;;;;;;;7.83;4.23;;;4.30;99.90;;;;;;5075227;28;20205;-57
2022/11/25 00:19:05;;;;;;;9.80;4.20;;;4.40;99.90;;;;;;5075039;28;20201;-57
2022/11/25 00:21:34;;;;;;;11.87;4.20;;;4.40;99.90;;;;;;5074098;28;20229;-57
2022/11/25 00:24:02;;;;;;;6.47;3.60;;;4.40;99.90;;;;;;5074631;28;20216;-57
2022/11/25 00:26:31;;;;;;;8.30;4.20;;;4.40;99.90;;;;;;5074601;28;20685;-57
2022/11/25 00:29:01;;;;;;;7.67;4.10;;;4.40;99.90;;;;;;5074269;28;20254;-57
2022/11/25 00:31:29;;;;;;;7.53;3.77;;;4.50;99.90;;;;;;5073937;28;20294;-57
2022/11/25 00:33:56;;;;;;;6.70;4.00;;;4.50;99.90;;;;;;5074526;28;20209;-57
2022/11/25 00:36:25;;;;;;;9.87;3.70;;;4.40;99.90;;;;;;5074842;28;20205;-57
2022/11/25 00:38:54;;;;;;;11.20;3.90;;;4.30;99.90;;;;;;5074415;28;20205;-56
2022/11/25 00:46:53;;;;;;;7.93;3.87;;;4.10;99.90;;;;;;5073989;28;20207;-57
2022/11/25 00:49:20;;;;;;;8.23;3.70;;;4.00;99.90;;;;;;5074383;28;20204;-58
2022/11/25 00:51:47;;;;;;;11.57;4.07;;;3.90;99.90;;;;;;5073330;28;20235;-57
2022/11/25 00:54:14;;;;;;;8.40;3.77;;;3.90;99.90;;;;;;5073832;28;20212;-57
2022/11/25 00:56:41;;;;;;;8.57;3.90;;;3.80;99.90;;;;;;5073864;28;20264;-57
2022/11/25 00:59:09;;;;;;;10.60;3.63;;;3.80;99.90;;;;;;5073947;28;20213;-57
2022/11/25 01:01:36;;;;;;;8.63;3.83;;;3.80;99.90;;;;;;5072883;28;20705;-58
2022/11/25 01:04:04;;;;;;;8.50;3.10;;;3.70;99.90;;;;;;5074213;28;20215;-57
2022/11/25 01:06:30;;;;;;;6.53;3.30;;;3.70;99.90;;;;;;5073974;28;20219;-57
2022/11/25 01:08:57;;;;;;;5.70;3.23;;;3.60;99.90;;;;;;5074078;28;20239;-57
2022/11/25 01:11:25;;;;;;;6.43;3.53;;;3.70;99.90;;;;;;5073112;28;20605;-57
2022/11/25 01:13:53;;;;;;;5.73;2.90;;;3.70;99.90;;;;;;5073882;28;20204;-57
2022/11/25 01:16:22;;;;;;;7.30;3.33;;;3.70;99.90;;;;;;5073639;28;20241;-57
2022/11/25 01:18:49;;;;;;;5.43;3.33;;;3.80;99.90;;;;;;5073496;28;20419;-57
2022/11/25 01:21:17;;;;;;;7.60;3.00;;;3.80;99.90;;;;;;5073158;28;20278;-58
2022/11/25 01:23:45;;;;;;;7.53;3.03;;;3.90;99.90;;;;;;5073519;28;20296;-57
2022/11/25 01:26:15;;;;;;;10.00;3.43;;;4.00;99.90;;;;;;5074036;28;20232;-58
2022/11/25 01:28:42;;;;;;;8.30;3.00;;;4.00;99.90;;;;;;5073604;28;20691;-57
2022/11/25 01:31:13;;;;;;;4.87;2.87;;;4.10;99.90;;;;;;5073503;28;20235;-58
2022/11/25 01:33:41;;;;;;;7.90;3.10;;;4.20;99.90;;;;;;5073774;28;20204;-58
2022/11/25 01:36:10;;;;;;;10.83;3.47;;;4.30;99.90;;;;;;5073778;28;20209;-57
2022/11/25 01:38:37;;;;;;;9.63;3.20;;;4.40;99.90;;;;;;5073336;28;20211;-58
2022/11/25 01:41:06;;;;;;;9.07;3.23;;;4.40;99.90;;;;;;5073106;28;20543;-58
2022/11/25 01:43:33;;;;;;;10.37;3.50;;;4.40;99.90;;;;;;5073210;28;20220;-57
2022/11/25 01:46:09;;;;;;;8.20;3.50;;;4.40;99.90;;;;;;5073317;28;20209;-57
2022/11/25 01:48:42;;;;;;;10.70;3.53;;;4.40;99.90;;;;;;5073219;28;20289;-57
2022/11/25 01:51:21;;;;;;;10.17;4.00;;;4.50;99.90;;;;;;5072551;28;20229;-57
2022/11/25 01:53:49;;;;;;;6.50;2.97;;;4.30;99.90;;;;;;5073513;28;20844;-57
2022/11/25 01:56:17;;;;;;;11.37;3.03;;;4.10;99.90;;;;;;5073744;28;20205;-57
2022/11/25 01:58:46;;;;;;;7.57;3.27;;;4.00;99.90;;;;;;5073563;28;20244;-57
2022/11/25 02:01:14;;;;;;;7.47;2.90;;;4.00;99.90;;;;;;5072732;28;20308;-57
2022/11/25 02:03:46;;;;;;;7.00;3.00;;;4.00;99.90;;;;;;5073233;28;20291;-57
2022/11/25 02:06:20;;;;;;;9.03;3.27;;;4.20;99.90;;;;;;5073046;28;20201;-57
2022/11/25 02:08:50;;;;;;;9.03;2.97;;;4.30;99.90;;;;;;5073008;28;20726;-57
2022/11/25 02:11:19;;;;;;;7.13;3.10;;;4.50;99.90;;;;;;5072394;28;20229;-58
2022/11/25 02:13:48;;;;;;;6.40;2.97;;;4.70;99.90;;;;;;5073070;28;20610;-57
2022/11/25 02:16:15;;;;;;;7.80;2.93;;;4.80;99.90;;;;;;5073265;28;20213;-57
2022/11/25 02:18:44;;;;;;;9.43;3.30;;;4.80;99.90;;;;;;5073651;28;20244;-58
2022/11/25 02:21:11;;;;;;;7.97;3.00;;;4.90;99.90;;;;;;5072900;28;20209;-58
2022/11/25 02:23:47;;;;;;;8.87;3.10;;;5.00;99.90;;;;;;5073481;28;20580;-58
2022/11/25 02:26:15;;;;;;;9.77;4.03;;;5.20;99.90;;;;;;5073378;28;20673;-58
2022/11/25 02:28:43;;;;;;;6.73;3.23;;;5.20;99.90;;;;;;5073481;28;20223;-58
2022/11/25 02:31:10;;;;;;;7.27;2.93;;;5.30;99.90;;;;;;5073020;28;20235;-58
2022/11/25 02:33:37;;;;;;;8.40;3.67;;;5.30;99.90;;;;;;5073567;28;20237;-58
2022/11/25 02:36:06;;;;;;;10.30;3.00;;;5.40;99.90;;;;;;5076779;28;20247;-58
2022/11/25 02:38:38;;;;;;;8.23;3.20;;;5.30;99.90;;;;;;5077475;28;20288;-58
2022/11/25 02:41:10;;;;;;;8.53;3.57;;;5.30;99.90;;;;;;5076832;28;20205;-58
2022/11/25 02:43:39;;;;;;;5.53;2.70;;;5.20;99.90;;;;;;5077183;28;20790;-58
2022/11/25 02:46:08;;;;;;;5.03;2.87;;;5.20;99.90;;;;;;5077110;28;20232;-57
2022/11/25 02:48:36;;;;;;;6.33;3.17;;;5.20;99.90;;;;;;5077224;28;20645;-58
2022/11/25 02:51:05;;;;;;;8.93;3.00;;;5.20;99.90;;;;;;5076282;28;20224;-58
2022/11/25 02:53:32;;;;;;;6.07;2.83;;;5.30;99.90;;;;;;5076462;28;20292;-57
2022/11/25 02:55:59;;;;;;;5.73;2.97;;;5.20;99.90;;;;;;5076692;28;20209;-57
2022/11/25 02:58:26;;;;;;;6.47;2.80;;;5.20;99.90;;;;;;5076113;28;20567;-57
2022/11/25 03:00:55;;;;;;;5.53;2.97;;;5.10;99.90;;;;;;5075468;28;20335;-57
2022/11/25 03:03:22;;;;;;;7.60;2.80;;;4.90;99.90;;;;;;5076332;28;20209;-57
2022/11/25 03:05:49;;;;;;;7.13;2.73;;;5.00;99.90;;;;;;5075708;28;20300;-57
2022/11/25 03:08:16;;;;;;;6.30;2.67;;;5.00;99.90;;;;;;5075856;28;20283;-57
2022/11/25 03:10:43;;;;;;;7.10;2.63;;;5.10;99.90;;;;;;5075855;28;20262;-57
2022/11/25 03:13:10;;;;;;;9.37;3.47;;;5.10;99.90;;;;;;5075703;28;20317;-57
2022/11/25 03:15:37;;;;;;;10.23;3.50;;;5.10;99.90;;;;;;5076640;28;20201;-58
2022/11/25 03:18:06;;;;;;;8.93;3.67;;;5.10;99.90;;;;;;5076119;28;20205;-58
2022/11/25 03:20:34;;;;;;;8.20;3.50;;;5.00;99.90;;;;;;5075656;28;20732;-57
2022/11/25 03:23:01;;;;;;;7.80;3.03;;;5.00;99.90;;;;;;5075999;28;20236;-57
2022/11/25 03:25:28;;;;;;;9.67;3.93;;;5.10;99.90;;;;;;5076447;28;20220;-57
2022/11/25 03:27:54;;;;;;;7.43;3.30;;;5.20;99.90;;;;;;5075887;28;20300;-58
2022/11/25 03:30:24;;;;;;;6.03;2.80;;;5.20;99.90;;;;;;5076024;28;20205;-58
2022/11/25 03:32:51;;;;;;;9.83;3.53;;;5.20;99.90;;;;;;5075448;28;20600;-58
2022/11/25 03:35:20;;;;;;;9.53;3.23;;;5.20;99.90;;;;;;5076009;28;20209;-58
2022/11/25 03:37:47;;;;;;;6.17;3.00;;;5.30;99.90;;;;;;5075807;28;20204;-58
2022/11/25 03:40:15;;;;;;;6.80;2.93;;;5.30;99.90;;;;;;5075915;28;20213;-58
2022/11/25 03:42:42;;;;;;;7.40;2.77;;;5.30;99.90;;;;;;5075296;28;20318;-57
2022/11/25 03:45:12;;;;;;;8.57;3.20;;;5.30;99.90;;;;;;5075722;28;20208;-58
2022/11/25 03:47:39;;;;;;;7.17;2.97;;;5.30;99.90;;;;;;5074810;28;20205;-58
2022/11/25 03:50:08;;;;;;;4.17;2.83;;;5.30;99.90;;;;;;5075682;28;20695;-58
2022/11/25 03:52:36;;;;;;;10.80;3.37;;;5.20;99.90;;;;;;5074826;28;20235;-58
2022/11/25 03:55:04;;;;;;;9.97;3.57;;;5.20;99.90;;;;;;5075088;28;20300;-58
2022/11/25 03:57:31;;;;;;;7.67;3.10;;;5.20;99.90;;;;;;5075465;28;20591;-58
2022/11/25 03:59:58;;;;;;;6.87;3.40;;;5.30;99.90;;;;;;5075172;28;20205;-58
2022/11/25 04:02:25;;;;;;;7.53;3.20;;;5.30;99.90;;;;;;5074345;28;20588;-58
2022/11/25 04:04:52;;;;;;;7.40;3.33;;;5.30;99.90;;;;;;5074803;28;20212;-57
2022/11/25 04:07:18;;;;;;;8.27;2.97;;;5.30;99.90;;;;;;5074971;28;20207;-57
2022/11/25 04:09:47;;;;;;;5.13;3.13;;;5.20;99.90;;;;;;5075068;28;20209;-58
2022/11/25 04:14:58;;;;;;;10.00;3.07;;;5.10;99.90;;;;;;5075009;28;20286;-57
2022/11/25 04:17:25;;;;;;;6.03;2.90;;;5.10;99.90;;;;;;5074657;28;20243;-57
2022/11/25 04:19:52;;;;;;;6.90;2.30;;;5.00;99.90;;;;;;5074715;28;20205;-57
2022/11/25 04:22:18;;;;;;;5.70;2.53;;;5.00;99.90;;;;;;5073494;28;20728;-57
2022/11/25 04:24:46;;;;;;;9.10;2.53;;;4.90;99.90;;;;;;5074484;28;20201;-57
2022/11/25 04:27:13;;;;;;;6.70;2.50;;;4.80;99.90;;;;;;5074859;28;20213;-57
2022/11/25 04:29:40;;;;;;;7.30;3.50;;;4.80;99.90;;;;;;5074381;28;20217;-57
2022/11/25 04:32:07;;;;;;;7.77;2.80;;;4.90;99.90;;;;;;5073605;28;20235;-57
2022/11/25 04:34:34;;;;;;;7.43;3.13;;;5.00;99.90;;;;;;5074486;28;20215;-57
2022/11/25 04:37:00;;;;;;;4.43;3.20;;;5.00;99.90;;;;;;5073647;28;20212;-59
2022/11/25 04:39:27;;;;;;;7.20;3.07;;;5.10;99.90;;;;;;5074034;28;20696;-58
2022/11/25 04:42:30;;;;;;;7.50;3.53;;;5.10;99.90;;;;;;5073292;28;20252;-58
2022/11/25 04:44:42;;;;;;;7.47;3.80;;;5.10;99.90;;;;;;5073825;28;20213;-57
2022/11/25 04:47:09;;;;;;;8.27;3.60;;;5.00;99.90;;;;;;5073889;28;20201;-57
2022/11/25 04:49:36;;;;;;;9.10;3.80;;;5.00;99.90;;;;;;5073997;28;20240;-57
2022/11/25 04:52:03;;;;;;;9.87;4.80;;;5.10;99.90;;;;;;5073179;28;20712;-57
2022/11/25 04:54:30;;;;;;;9.20;3.50;;;5.10;99.90;;;;;;5073505;28;20201;-57
2022/11/25 04:56:58;;;;;;;7.53;3.20;;;5.10;99.90;;;;;;5073823;28;20201;-57
2022/11/25 04:59:39;;;;;;;8.00;3.40;;;5.10;99.90;;;;;;5073087;28;20308;-57
2022/11/25 05:02:06;;;;;;;5.90;3.60;;;5.10;99.90;;;;;;5073003;28;20581;-57
2022/11/25 05:04:32;;;;;;;8.20;3.83;;;5.20;99.90;;;;;;5073542;28;20295;-57
2022/11/25 05:06:59;;;;;;;6.53;3.40;;;5.10;99.90;;;;;;5073497;28;20204;-57
2022/11/25 05:09:26;;;;;;;9.30;3.50;;;5.20;99.90;;;;;;5073737;28;20292;-57
2022/11/25 05:11:53;;;;;;;7.93;2.90;;;5.10;99.90;;;;;;5072956;28;20236;-58
2022/11/25 05:14:22;;;;;;;7.83;2.93;;;5.10;99.90;;;;;;5073631;28;20209;-58
2022/11/25 05:16:49;;;;;;;9.90;2.90;;;5.10;99.90;;;;;;5073700;28;20204;-58
2022/11/25 05:19:16;;;;;;;7.57;2.90;;;5.10;99.90;;;;;;5073532;28;20232;-58
2022/11/25 05:21:43;;;;;;;6.63;2.93;;;5.10;99.90;;;;;;5072531;28;20720;-58
2022/11/25 05:24:10;;;;;;;6.43;3.03;;;5.10;99.90;;;;;;5073658;28;20688;-57
2022/11/25 05:26:36;;;;;;;6.07;2.50;;;5.10;99.90;;;;;;5073833;28;20210;-57
2022/11/25 05:29:04;;;;;;;9.27;2.90;;;5.00;99.90;;;;;;5073177;28;20208;-58
2022/11/25 05:31:32;;;;;;;4.73;2.87;;;5.00;99.90;;;;;;5073177;28;20225;-57
2022/11/25 05:34:01;;;;;;;7.73;2.40;;;5.00;99.90;;;;;;5072835;28;20295;-58
2022/11/25 05:36:28;;;;;;;12.27;2.67;;;5.00;99.90;;;;;;5073168;28;20637;-57
2022/11/25 05:38:56;;;;;;;5.27;2.57;;;4.90;99.90;;;;;;5073258;28;20214;-57
2022/11/25 05:41:23;;;;;;;5.17;2.53;;;4.80;99.90;;;;;;5072594;28;20593;-57
2022/11/25 05:43:50;;;;;;;11.07;4.73;;;4.80;99.90;;;;;;5072640;28;20662;-57
2022/11/25 05:46:17;;;;;;;7.10;2.80;;;4.80;99.90;;;;;;5072560;28;20208;-57
2022/11/25 05:48:45;;;;;;;5.97;3.23;;;4.90;99.90;;;;;;5072606;28;20743;-59
2022/11/25 05:51:12;;;;;;;6.97;2.87;;;5.00;99.90;;;;;;5071919;28;20216;-57
2022/11/25 05:53:39;;;;;;;5.57;3.50;;;5.00;99.90;;;;;;5072706;28;20205;-57
2022/11/25 05:56:07;;;;;;;8.40;3.87;;;5.00;99.90;;;;;;5072822;28;20236;-57
2022/11/25 05:58:33;;;;;;;5.50;3.30;;;4.90;99.90;;;;;;5072942;28;20639;-58
2022/11/25 06:01:00;;;;;;;9.73;2.90;;;4.90;99.90;;;;;;5072295;28;20204;-57
2022/11/25 06:03:29;;;;;;;7.37;3.47;;;4.80;99.90;;;;;;5073380;28;20227;-57
2022/11/25 06:05:57;;;;;;;15.50;9.33;;;4.80;99.90;;;;;;5072769;28;20296;-57
2022/11/25 06:08:24;;;;;;;6.30;3.90;;;4.90;99.90;;;;;;5072760;28;20211;-58
2022/11/25 06:10:52;;;;;;;8.90;4.77;;;5.00;99.90;;;;;;5071901;28;20201;-57
2022/11/25 06:13:19;;;;;;;9.50;3.53;;;5.00;99.90;;;;;;5072535;28;20224;-58
2022/11/25 06:15:46;;;;;;;13.03;6.93;;;5.00;99.90;;;;;;5072802;28;20615;-58
2022/11/25 06:18:15;;;;;;;10.57;4.97;;;4.90;99.90;;;;;;5073138;28;20204;-58
2022/11/25 06:20:42;;;;;;;11.33;5.40;;;5.00;99.90;;;;;;5072614;28;20209;-57
2022/11/25 06:23:11;;;;;;;12.90;3.93;;;5.00;99.90;;;;;;5073190;28;20250;-57
2022/11/25 06:25:38;;;;;;;7.63;4.07;;;5.00;99.90;;;;;;5072840;28;20208;-57
2022/11/25 06:28:05;;;;;;;7.13;3.67;;;4.90;99.90;;;;;;5073149;28;20618;-58
2022/11/25 06:30:31;;;;;;;8.57;3.70;;;4.80;99.90;;;;;;5073161;28;20211;-58
2022/11/25 06:32:58;;;;;;;10.17;4.87;;;4.80;99.90;;;;;;5072367;28;20235;-58
2022/11/25 06:35:25;;;;;;;6.23;4.00;;;4.80;99.90;;;;;;5073038;28;20212;-57
2022/11/25 06:37:52;;;;;;;8.77;5.67;;;4.80;99.90;;;;;;5072877;28;20215;-58
2022/11/25 06:40:21;;;;;;;7.47;4.10;;;4.70;99.90;;;;;;5073125;28;20204;-57
2022/11/25 06:42:47;;;;;;;7.03;3.67;;;4.70;99.90;;;;;;5072229;28;20259;-57
2022/11/25 06:45:14;;;;;;;11.23;3.93;;;4.70;99.90;;;;;;5073751;28;20236;-57
2022/11/25 06:47:41;;;;;;;9.20;3.93;;;4.70;99.90;;;;;;5072969;28;20211;-57
2022/11/25 06:50:09;;;;;;;4.80;3.60;;;4.70;99.90;;;;;;5072662;28;20299;-57
2022/11/25 06:52:35;;;;;;;15.57;5.03;;;4.80;99.90;;;;;;5071815;28;20311;-57
2022/11/25 06:55:02;;;;;;;7.03;4.13;;;4.80;99.90;;;;;;5072564;28;20211;-57
2022/11/25 06:57:30;;;;;;;10.47;3.50;;;4.80;99.90;;;;;;5072452;28;20201;-57
2022/11/25 06:59:57;;;;;;;8.53;4.10;;;4.80;99.90;;;;;;5072370;28;20205;-57
2022/11/25 07:02:24;;;;;;;7.83;3.90;;;4.90;99.90;;;;;;5071889;28;20225;-57
2022/11/25 07:04:51;;;;;;;6.83;3.57;;;4.90;99.90;;;;;;5072391;28;20665;-57
2022/11/25 07:07:18;;;;;;;9.93;4.03;;;4.90;99.90;;;;;;5072180;28;20216;-56
2022/11/25 07:09:46;;;;;;;10.17;4.33;;;5.00;99.90;;;;;;5071926;28;20663;-56
2022/11/25 07:12:13;;;;;;;15.17;4.87;;;5.00;99.90;;;;;;5071048;28;20229;-57
2022/11/25 07:14:41;;;;;;;7.30;4.40;;;5.00;99.90;;;;;;5072254;28;20211;-56
2022/11/25 07:17:08;;;;;;;9.83;4.70;;;5.10;99.90;;;;;;5071873;28;20545;-57
2022/11/25 07:19:35;;;;;;;5.87;3.23;;;5.10;99.90;;;;;;5071882;28;20292;-57
2022/11/25 07:22:02;;;;;;;9.67;4.20;;;5.10;99.90;;;;;;5072760;28;20771;-57
2022/11/25 07:24:29;;;;;;;6.60;3.80;;;5.20;99.90;;;;;;5075517;28;20612;-56
2022/11/25 07:26:56;;;;;;;11.13;3.90;;;5.30;99.90;;;;;;5075412;28;20236;-56
2022/11/25 07:29:23;;;;;;;11.57;4.77;;;5.30;99.90;;;;;;5075268;28;20296;-56
2022/11/25 07:31:51;;;;;;;11.53;4.70;;;5.50;99.90;;;;;;5074904;28;20225;-57
2022/11/25 07:34:20;;;;;;;21.33;5.97;;;5.60;99.90;;;;;;5075252;28;20201;-56
2022/11/25 07:36:48;;;;;;;19.83;5.10;;;5.70;99.90;;;;;;5075255;28;20683;-56
2022/11/25 07:39:18;;;;;;;14.70;4.73;;;5.80;99.90;;;;;;5074963;28;20209;-56
2022/11/25 07:41:45;;;;;;;7.70;3.97;;;5.90;99.90;;;;;;5075042;28;20313;-58
2022/11/25 07:44:13;;;;;;;8.03;4.37;;;6.00;99.90;;;;;;5075357;28;20200;-56
2022/11/25 07:46:42;;;;;;;7.63;4.10;;;6.00;99.90;;;;;;5075359;28;20220;-56
2022/11/25 07:49:12;;;;;;;6.97;3.87;;;6.10;99.90;;;;;;5075329;28;20287;-57
2022/11/25 07:51:41;;;;;;;15.20;3.70;;;6.10;99.90;;;;;;5073977;28;20713;-57
2022/11/25 07:54:09;;;;;;;6.57;3.57;;;6.30;99.90;;;;;;5074805;28;20205;-57
2022/11/25 07:56:38;;;;;;;6.47;3.30;;;6.50;99.90;;;;;;5075086;28;20590;-57
2022/11/25 07:59:06;;;;;;;5.67;2.90;;;6.60;99.90;;;;;;5075095;28;20204;-57
2022/11/25 08:01:32;;;;;;;6.07;3.07;;;6.80;99.90;;;;;;5074664;28;20312;-57
2022/11/25 08:03:59;;;;;;;9.67;3.37;;;7.00;99.90;;;;;;5075021;28;20204;-57
2022/11/25 08:06:29;;;;;;;6.40;3.07;;;7.20;99.90;;;;;;5074826;28;20209;-57
2022/11/25 08:08:57;;;;;;;5.50;2.90;;;7.50;99.90;;;;;;5075053;28;20228;-57
2022/11/25 08:11:26;;;;;;;5.63;2.80;;;7.80;99.90;;;;;;5074306;28;20224;-57
2022/11/25 08:13:53;;;;;;;8.90;3.17;;;8.00;99.90;;;;;;5074332;28;20225;-57
2022/11/25 08:16:22;;;;;;;10.20;3.13;;;8.30;99.90;;;;;;5074662;28;20212;-57
2022/11/25 08:18:49;;;;;;;6.60;2.93;;;8.40;99.90;;;;;;5074768;28;20602;-57
2022/11/25 08:21:18;;;;;;;7.87;3.27;;;8.50;99.90;;;;;;5073760;28;20225;-57
2022/11/25 08:23:47;;;;;;;6.50;3.03;;;8.60;99.90;;;;;;5074572;28;20205;-57
2022/11/25 08:26:17;;;;;;;5.57;3.17;;;8.60;99.90;;;;;;5074314;28;20216;-57
2022/11/25 08:28:45;;;;;;;5.23;3.10;;;8.70;99.90;;;;;;5074672;28;20205;-58
2022/11/25 08:31:14;;;;;;;6.37;3.00;;;8.80;99.90;;;;;;5073683;28;20261;-58
2022/11/25 08:33:41;;;;;;;6.77;3.23;;;8.90;99.90;;;;;;5073834;28;20581;-58
2022/11/25 08:36:09;;;;;;;6.07;3.53;;;8.80;99.90;;;;;;5074228;28;20200;-57
2022/11/25 08:38:36;;;;;;;7.00;3.43;;;8.90;99.90;;;;;;5074212;28;20201;-57
2022/11/25 08:41:10;;;;;;;8.97;3.87;;;8.80;99.90;;;;;;5073362;28;20557;-57
2022/11/25 08:43:37;;;;;;;6.00;4.10;;;8.90;99.90;;;;;;5074218;28;20209;-58
2022/11/25 08:46:08;;;;;;;8.17;4.77;;;8.90;99.90;;;;;;5074385;28;20209;-58
2022/11/25 08:48:35;;;;;;;7.63;4.90;;;8.90;99.90;;;;;;5074182;28;20615;-57
2022/11/25 08:51:02;;;;;;;12.20;4.83;;;8.90;99.90;;;;;;5073166;28;20201;-57
2022/11/25 08:53:29;;;;;;;7.90;5.07;;;9.00;99.90;;;;;;5073716;28;20224;-57
2022/11/25 08:55:56;;;;;;;7.87;4.93;;;8.90;99.90;;;;;;5073664;28;20589;-58
2022/11/25 08:58:24;;;;;;;9.40;4.30;;;8.80;99.90;;;;;;5073523;28;20671;-57
2022/11/25 09:00:51;;;;;;;6.80;3.92;;;8.70;99.90;;;;;;5072768;28;20663;-59
2022/11/25 09:03:17;;;;;;;6.87;3.43;;;8.70;99.90;;;;;;5072610;28;20221;-58
2022/11/25 09:05:44;;;;;;;9.70;3.63;;;8.70;99.90;;;;;;5074401;28;20688;-61
2022/11/25 09:08:12;;;;;;;4.47;3.20;;;8.90;99.90;;;;;;5073010;28;20205;-61
2022/11/25 09:10:40;;;;;;;7.07;3.67;;;8.90;99.90;;;;;;5074549;28;20213;-62
2022/11/25 09:13:09;;;;;;;5.70;3.63;;;8.90;99.90;;;;;;5071609;28;20727;-60
2022/11/25 09:15:37;;;;;;;8.93;4.00;;;8.90;99.90;;;;;;5049022;28;20708;-70
2022/11/25 09:18:06;;;;;;;8.90;4.20;;;8.90;99.90;;;;;;5031990;28;20213;-59
2022/11/25 09:20:34;;;;;;;9.40;4.60;;;8.90;99.90;;;;;;5033005;28;20296;-65
2022/11/25 09:23:02;;;;;;;8.67;4.83;;;8.80;99.90;;;;;;5032354;28;20261;-58
2022/11/25 09:25:29;;;;;;;9.23;4.57;;;8.80;99.90;;;;;;5031967;28;20221;-68
2022/11/25 09:27:56;;;;;;;8.03;4.40;;;8.70;99.90;;;;;;5031567;28;20677;-58
2022/11/25 09:30:23;;;;;;;6.87;4.03;;;8.60;99.90;;;;;;5031338;28;20210;-61
2022/11/25 09:32:53;;;;;;;7.67;4.70;;;8.50;99.90;;;;;;5032323;28;20230;-63
2022/11/25 09:35:21;;;;;;;7.00;4.23;;;8.50;99.90;;;;;;5032220;28;20205;-59
2022/11/25 09:37:48;;;;;;;7.10;4.20;;;8.80;99.90;;;;;;5031058;28;20209;-60
2022/11/25 09:40:19;;;;;;;6.83;4.23;;;9.20;99.90;;;;;;5031224;28;20214;-60
2022/11/25 09:48:52;;;;;;;8.50;4.90;;;10.40;99.90;;;;;;5031067;28;20205;-60
2022/11/25 09:51:23;;;;;;;6.93;4.63;;;10.90;99.90;;;;;;5031009;28;20229;-60
2022/11/25 09:53:53;;;;;;;7.97;4.43;;;11.30;99.90;;;;;;5031576;28;20694;-60
2022/11/25 09:56:28;;;;;;;7.27;4.40;;;11.50;99.90;;;;;;5031911;28;20209;-60
2022/11/25 09:59:00;;;;;;;6.90;4.03;;;11.70;99.90;;;;;;5032267;28;20212;-61
2022/11/25 10:01:29;;;;;;;8.63;4.27;;;11.80;99.90;;;;;;5031004;28;20580;-60
2022/11/25 10:04:03;;;;;;;9.30;4.33;;;11.90;99.90;;;;;;5031874;28;20202;-60
2022/11/25 10:06:33;;;;;;;6.67;3.63;;;11.90;99.90;;;;;;5031129;28;20190;-59
2022/11/25 10:09:02;;;;;;;5.63;3.60;;;11.80;99.90;;;;;;5030760;28;20585;-60
2022/11/25 10:11:37;;;;;;;6.13;3.47;;;11.80;99.90;;;;;;5030046;28;20233;-60
2022/11/25 10:14:12;;;;;;;6.83;3.60;;;11.80;99.90;;;;;;5031247;28;20226;-59
2022/11/25 10:16:50;;;;;;;5.83;3.33;;;11.90;99.90;;;;;;5030857;28;20205;-60
2022/11/25 10:19:30;;;;;;;6.23;3.50;;;12.10;99.90;;;;;;5030790;28;20216;-60
2022/11/25 10:21:57;;;;;;;7.27;3.57;;;12.30;99.90;;;;;;5029944;28;20256;-59
2022/11/25 10:24:25;;;;;;;8.17;3.80;;;12.50;99.90;;;;;;5031312;28;20206;-59
2022/11/25 10:26:57;;;;;;;5.50;3.70;;;12.60;99.90;;;;;;5030914;28;20229;-59
2022/11/25 10:29:27;;;;;;;6.60;3.50;;;12.70;99.90;;;;;;5030678;28;20206;-60
2022/11/25 10:32:01;;;;;;;6.07;3.33;;;12.90;99.90;;;;;;5029338;28;20258;-59
2022/11/25 10:34:36;;;;;;;5.77;2.90;;;13.20;99.90;;;;;;5030403;28;20706;-59
2022/11/25 10:37:06;;;;;;;4.60;3.10;;;13.30;99.90;;;;;;5030630;28;20658;-59
2022/11/25 10:39:34;;;;;;;6.33;2.90;;;13.40;99.90;;;;;;5030346;28;20206;-59
2022/11/25 10:42:06;;;;;;;3.93;2.90;;;13.30;99.90;;;;;;5029428;28;20237;-60
2022/11/25 10:44:35;;;;;;;4.47;2.10;;;13.20;99.90;;;;;;5029935;28;20590;-59
2022/11/25 10:47:20;;;;;;;6.70;1.67;;;13.20;99.90;;;;;;5030341;28;20353;-59
2022/11/25 10:49:59;;;;;;;5.33;2.30;;;13.20;99.90;;;;;;5030243;28;20210;-59
2022/11/25 10:52:29;;;;;;;7.13;2.60;;;13.10;99.90;;;;;;5029594;28;20292;-59
2022/11/25 10:54:58;;;;;;;9.30;3.40;;;13.00;99.90;;;;;;5029946;28;20213;-59
2022/11/25 10:57:28;;;;;;;3.13;1.80;;;13.00;99.90;;;;;;5032493;28;20207;-59
2022/11/25 10:59:57;;;;;;;3.30;1.80;;;12.90;99.90;;;;;;5033848;28;20232;-59
2022/11/25 11:02:27;;;;;;;4.60;1.80;;;13.00;99.90;;;;;;5033053;28;20226;-59
2022/11/25 11:04:58;;;;;;;3.93;1.90;;;12.90;99.90;;;;;;5034114;28;20210;-59
2022/11/25 11:07:26;;;;;;;5.27;1.70;;;13.00;99.90;;;;;;5033564;28;20213;-60
2022/11/25 11:09:54;;;;;;;7.27;2.00;;;13.00;99.90;;;;;;5033772;28;20214;-59
2022/11/25 11:12:24;;;;;;;10.33;4.00;;;13.00;99.90;;;;;;5033259;28;20237;-58
2022/11/25 11:14:51;;;;;;;6.97;2.67;;;13.00;99.90;;;;;;5033546;28;20226;-59
2022/11/25 11:17:30;;;;;;;5.53;1.97;;;12.90;99.90;;;;;;5033974;28;20207;-58
2022/11/25 11:20:05;;;;;;;4.27;3.03;;;12.90;99.90;;;;;;5032722;28;20228;-59
2022/11/25 11:22:32;;;;;;;5.60;3.77;;;12.60;99.90;;;;;;5032822;28;20260;-61
2022/11/25 11:25:07;;;;;;;9.20;4.70;;;12.40;99.90;;;;;;5034008;28;20294;-62
2022/11/25 11:27:37;;;;;;;9.63;4.47;;;12.10;99.90;;;;;;5033550;28;20926;-59
2022/11/25 11:30:14;;;;;;;8.90;5.20;;;11.90;99.90;;;;;;5032993;28;20680;-59
2022/11/25 11:32:44;;;;;;;13.70;5.00;;;11.80;99.90;;;;;;5032413;28;20241;-60
2022/11/25 11:35:25;;;;;;;9.67;4.53;;;11.70;99.90;;;;;;5033282;28;20669;-60
2022/11/25 11:37:54;;;;;;;7.53;3.90;;;11.80;99.90;;;;;;5032901;28;20630;-60
2022/11/25 11:40:39;;;;;;;5.73;3.40;;;11.70;99.90;;;;;;5033457;28;20210;-57
2022/11/25 11:43:39;;;;;;;5.83;3.60;;;11.50;99.90;;;;;;5033091;28;20328;-60
2022/11/25 11:46:23;;;;;;;8.70;4.30;;;11.30;99.90;;;;;;5010842;28;20678;-60
2022/11/25 11:49:00;;;;;;;8.20;3.53;;;11.10;99.90;;;;;;5033501;28;20226;-61
2022/11/25 11:51:37;;;;;;;8.60;3.93;;;11.00;99.90;;;;;;5033232;28;20226;-61
2022/11/25 11:54:09;;;;;;;7.13;3.17;;;10.70;99.90;;;;;;5033693;28;20230;-61
2022/11/25 11:56:40;;;;;;;6.57;4.27;;;10.50;99.90;;;;;;5032974;28;20206;-64
2022/11/25 11:59:30;;;;;;;8.77;5.50;;;10.50;99.90;;;;;;5033481;28;20210;-61
2022/11/25 12:02:11;;;;;;;5.83;4.07;;;10.70;99.90;;;;;;5032229;28;20226;-59
2022/11/25 12:04:41;;;;;;;8.13;4.77;;;10.80;99.90;;;;;;5033083;28;20635;-59
2022/11/25 12:07:18;;;;;;;7.63;4.10;;;10.90;99.90;;;;;;5032565;28;20209;-59
2022/11/25 12:09:49;;;;;;;6.20;4.20;;;11.10;99.90;;;;;;5032446;28;20210;-61
2022/11/25 12:12:19;;;;;;;6.30;3.67;;;11.10;99.90;;;;;;5033459;28;20226;-63
2022/11/25 12:14:49;;;;;;;6.60;3.97;;;11.20;99.90;;;;;;5033313;28;20234;-61
2022/11/25 12:17:20;;;;;;;8.50;3.20;;;11.00;99.90;;;;;;5033086;28;20209;-59
2022/11/25 12:19:55;;;;;;;5.33;3.73;;;10.90;99.90;;;;;;5032659;28;20214;-61
2022/11/25 12:22:28;;;;;;;5.97;3.27;;;10.80;99.90;;;;;;5031952;28;20233;-61
2022/11/25 12:25:01;;;;;;;7.83;3.67;;;10.70;99.90;;;;;;5032754;28;20212;-61
2022/11/25 12:27:34;;;;;;;5.23;3.20;;;10.60;99.90;;;;;;5032405;28;20217;-61
2022/11/25 12:30:05;;;;;;;9.53;3.40;;;10.60;99.90;;;;;;5032802;28;20209;-60
2022/11/25 12:32:50;;;;;;;6.10;3.63;;;10.60;99.90;;;;;;5031213;28;20780;-60
2022/11/25 12:35:24;;;;;;;9.23;3.70;;;10.70;99.90;;;;;;5032664;28;20206;-61
2022/11/25 12:38:00;;;;;;;8.97;3.70;;;10.80;99.90;;;;;;5032121;28;20214;-61
2022/11/25 12:40:32;;;;;;;7.83;3.90;;;10.70;99.90;;;;;;5032720;28;20205;-60
2022/11/25 12:43:09;;;;;;;7.03;3.87;;;10.70;99.90;;;;;;5031384;28;20333;-61
2022/11/25 12:45:36;;;;;;;9.37;4.67;;;10.60;99.90;;;;;;5032221;28;20202;-61
2022/11/25 12:48:03;;;;;;;8.17;3.83;;;10.50;99.90;;;;;;5032353;28;20233;-61
2022/11/25 12:50:46;;;;;;;7.57;3.57;;;10.60;99.90;;;;;;5032102;28;20206;-60
2022/11/25 12:53:19;;;;;;;7.30;3.80;;;10.70;99.90;;;;;;5031077;28;20226;-59
2022/11/25 12:55:46;;;;;;;7.40;3.50;;;10.80;99.90;;;;;;5031618;28;20673;-62
2022/11/25 12:58:34;;;;;;;5.37;3.47;;;10.80;99.90;;;;;;5031623;28;20207;-62
2022/11/25 13:01:29;;;;;;;7.13;3.70;;;10.80;99.90;;;;;;5032182;28;20217;-58
2022/11/25 13:04:37;;;;;;;7.40;3.70;;;10.60;99.90;;;;;;5031539;28;20198;-61
2022/11/25 13:07:26;;;;;;;5.87;4.07;;;10.30;99.90;;;;;;5032300;28;20225;-61
2022/11/25 13:10:19;;;;;;;7.83;3.70;;;10.20;99.90;;;;;;5031238;28;20210;-59
2022/11/25 13:12:58;;;;;;;9.50;4.43;;;10.20;99.90;;;;;;5031293;28;20235;-59
2022/11/25 13:15:28;;;;;;;6.80;4.20;;;10.20;99.90;;;;;;5032723;28;20713;-56
2022/11/25 13:17:59;;;;;;;7.60;4.30;;;10.30;99.90;;;;;;5031641;28;20210;-57
2022/11/25 13:20:36;;;;;;;8.80;4.73;;;10.40;99.90;;;;;;5031073;28;20206;-57